sensor_id;sensor_type;location;lat;lon;timestamp;temperature;humidity
22813;DHT22;11573;51.334;3.244;2023-07-24T00:00:33;17.50;99.90
22813;DHT22;11573;51.334;3.244;2023-07-24T00:03:02;17.50;99.90
22813;DHT22;11573;51.334;3.244;2023-07-24T00:05:30;17.50;99.90
22813;DHT22;11573;51.334;3.244;2023-07-24T00:07:57;17.50;99.90
22813;DHT22;11573;51.334;3.244;2023-07-24T00:10:24;17.50;99.90
22813;DHT22;11573;51.334;3.244;2023-07-24T00:12:51;17.50;99.90
22813;DHT22;11573;51.334;3.244;2023-07-24T00:15:18;17.50;99.90
22813;DHT22;11573;51.334;3.244;2023-07-24T00:17:45;17.50;99.90
22813;DHT22;11573;51.334;3.244;2023-07-24T00:20:12;17.50;99.90
22813;DHT22;11573;51.334;3.244;2023-07-24T00:22:39;17.50;99.90
22813;DHT22;11573;51.334;3.244;2023-07-24T00:25:07;17.50;99.90
22813;DHT22;11573;51.334;3.244;2023-07-24T00:27:35;17.40;99.90
22813;DHT22;11573;51.334;3.244;2023-07-24T00:30:03;17.50;99.90
22813;DHT22;11573;51.334;3.244;2023-07-24T00:32:30;17.40;99.90
22813;DHT22;11573;51.334;3.244;2023-07-24T00:34:57;17.40;99.90
22813;DHT22;11573;51.334;3.244;2023-07-24T00:37:24;17.40;99.90
22813;DHT22;11573;51.334;3.244;2023-07-24T00:39:51;17.40;99.90
22813;DHT22;11573;51.334;3.244;2023-07-24T00:42:18;17.40;99.90
22813;DHT22;11573;51.334;3.244;2023-07-24T00:44:47;17.40;99.90
22813;DHT22;11573;51.334;3.244;2023-07-24T00:47:17;17.40;99.90
22813;DHT22;11573;51.334;3.244;2023-07-24T00:49:46;17.40;99.90
22813;DHT22;11573;51.334;3.244;2023-07-24T00:52:14;17.40;99.90
22813;DHT22;11573;51.334;3.244;2023-07-24T00:54:41;17.40;99.90
22813;DHT22;11573;51.334;3.244;2023-07-24T00:57:12;17.50;99.90
22813;DHT22;11573;51.334;3.244;2023-07-24T00:59:41;17.50;99.90
22813;DHT22;11573;51.334;3.244;2023-07-24T01:02:09;17.50;99.90
22813;DHT22;11573;51.334;3.244;2023-07-24T01:04:38;17.50;99.90
22813;DHT22;11573;51.334;3.244;2023-07-24T01:07:06;17.40;99.90
22813;DHT22;11573;51.334;3.244;2023-07-24T01:09:34;17.50;99.90
22813;DHT22;11573;51.334;3.244;2023-07-24T01:12:07;17.50;99.90
22813;DHT22;11573;51.334;3.244;2023-07-24T01:14:47;17.40;99.90
22813;DHT22;11573;51.334;3.244;2023-07-24T01:17:22;17.40;99.90
22813;DHT22;11573;51.334;3.244;2023-07-24T01:19:55;17.40;99.90
22813;DHT22;11573;51.334;3.244;2023-07-24T01:27:45;17.30;99.90
22813;DHT22;11573;51.334;3.244;2023-07-24T01:30:16;17.30;99.90
22813;DHT22;11573;51.334;3.244;2023-07-24T01:32:44;17.30;99.90
22813;DHT22;11573;51.334;3.244;2023-07-24T01:35:11;17.30;99.90
22813;DHT22;11573;51.334;3.244;2023-07-24T01:37:40;17.30;99.90
22813;DHT22;11573;51.334;3.244;2023-07-24T01:40:09;17.30;99.90
22813;DHT22;11573;51.334;3.244;2023-07-24T01:42:37;17.30;99.90
22813;DHT22;11573;51.334;3.244;2023-07-24T01:45:04;17.30;99.90
22813;DHT22;11573;51.334;3.244;2023-07-24T01:47:32;17.30;99.90
22813;DHT22;11573;51.334;3.244;2023-07-24T01:49:59;17.30;99.90
22813;DHT22;11573;51.334;3.244;2023-07-24T01:52:26;17.30;99.90
22813;DHT22;11573;51.334;3.244;2023-07-24T01:54:53;17.30;99.90
22813;DHT22;11573;51.334;3.244;2023-07-24T01:57:20;17.30;99.90
22813;DHT22;11573;51.334;3.244;2023-07-24T01:59:47;17.20;99.90
22813;DHT22;11573;51.334;3.244;2023-07-24T02:02:15;17.30;99.90
22813;DHT22;11573;51.334;3.244;2023-07-24T02:04:43;17.30;99.90
22813;DHT22;11573;51.334;3.244;2023-07-24T02:07:10;17.30;99.90
22813;DHT22;11573;51.334;3.244;2023-07-24T02:09:36;17.30;99.90
22813;DHT22;11573;51.334;3.244;2023-07-24T02:12:04;17.30;99.90
22813;DHT22;11573;51.334;3.244;2023-07-24T02:14:31;17.30;99.90
22813;DHT22;11573;51.334;3.244;2023-07-24T02:16:58;17.30;99.90
22813;DHT22;11573;51.334;3.244;2023-07-24T02:19:25;17.30;99.90
22813;DHT22;11573;51.334;3.244;2023-07-24T02:21:52;17.30;99.90
22813;DHT22;11573;51.334;3.244;2023-07-24T02:24:19;17.30;99.90
22813;DHT22;11573;51.334;3.244;2023-07-24T02:26:46;17.30;99.90
22813;DHT22;11573;51.334;3.244;2023-07-24T02:29:13;17.30;99.90
22813;DHT22;11573;51.334;3.244;2023-07-24T02:31:42;17.30;99.90
22813;DHT22;11573;51.334;3.244;2023-07-24T02:34:09;17.30;99.90
22813;DHT22;11573;51.334;3.244;2023-07-24T02:36:40;17.30;99.90
22813;DHT22;11573;51.334;3.244;2023-07-24T02:39:08;17.20;99.90
22813;DHT22;11573;51.334;3.244;2023-07-24T02:41:35;17.30;99.90
22813;DHT22;11573;51.334;3.244;2023-07-24T02:44:03;17.30;99.90
22813;DHT22;11573;51.334;3.244;2023-07-24T02:46:30;17.30;99.90
22813;DHT22;11573;51.334;3.244;2023-07-24T02:48:58;17.30;99.90
22813;DHT22;11573;51.334;3.244;2023-07-24T02:51:25;17.30;99.90
22813;DHT22;11573;51.334;3.244;2023-07-24T02:53:54;17.30;99.90
22813;DHT22;11573;51.334;3.244;2023-07-24T02:56:21;17.30;99.90
22813;DHT22;11573;51.334;3.244;2023-07-24T02:58:48;17.30;99.90
22813;DHT22;11573;51.334;3.244;2023-07-24T03:01:15;17.30;99.90
22813;DHT22;11573;51.334;3.244;2023-07-24T03:03:42;17.30;99.90
22813;DHT22;11573;51.334;3.244;2023-07-24T03:06:10;17.30;99.90
22813;DHT22;11573;51.334;3.244;2023-07-24T03:08:37;17.30;99.90
22813;DHT22;11573;51.334;3.244;2023-07-24T03:11:07;17.30;99.90
22813;DHT22;11573;51.334;3.244;2023-07-24T03:13:34;17.20;99.90
22813;DHT22;11573;51.334;3.244;2023-07-24T03:16:01;17.20;99.90
22813;DHT22;11573;51.334;3.244;2023-07-24T03:18:28;17.10;99.90
22813;DHT22;11573;51.334;3.244;2023-07-24T03:20:57;17.10;99.90
22813;DHT22;11573;51.334;3.244;2023-07-24T03:23:25;17.00;99.90
22813;DHT22;11573;51.334;3.244;2023-07-24T03:25:52;17.00;99.90
22813;DHT22;11573;51.334;3.244;2023-07-24T03:28:19;17.00;99.90
22813;DHT22;11573;51.334;3.244;2023-07-24T03:30:46;17.00;99.90
22813;DHT22;11573;51.334;3.244;2023-07-24T03:33:13;17.00;99.90
22813;DHT22;11573;51.334;3.244;2023-07-24T03:35:40;16.90;99.90
22813;DHT22;11573;51.334;3.244;2023-07-24T03:38:07;17.00;99.90
22813;DHT22;11573;51.334;3.244;2023-07-24T03:40:34;16.90;99.90
22813;DHT22;11573;51.334;3.244;2023-07-24T03:43:03;17.00;99.90
22813;DHT22;11573;51.334;3.244;2023-07-24T03:45:31;16.90;99.90
22813;DHT22;11573;51.334;3.244;2023-07-24T03:47:58;16.90;99.90
22813;DHT22;11573;51.334;3.244;2023-07-24T03:50:25;16.90;99.90
22813;DHT22;11573;51.334;3.244;2023-07-24T03:52:52;16.90;99.90
22813;DHT22;11573;51.334;3.244;2023-07-24T03:55:19;16.90;99.90
22813;DHT22;11573;51.334;3.244;2023-07-24T03:57:46;16.90;99.90
22813;DHT22;11573;51.334;3.244;2023-07-24T04:00:13;16.90;99.90
22813;DHT22;11573;51.334;3.244;2023-07-24T04:02:40;16.90;99.90
22813;DHT22;11573;51.334;3.244;2023-07-24T04:05:07;16.90;99.90
22813;DHT22;11573;51.334;3.244;2023-07-24T04:07:34;16.90;99.90
22813;DHT22;11573;51.334;3.244;2023-07-24T04:10:01;16.90;99.90
22813;DHT22;11573;51.334;3.244;2023-07-24T04:12:29;16.90;99.90
22813;DHT22;11573;51.334;3.244;2023-07-24T04:14:56;17.00;99.90
22813;DHT22;11573;51.334;3.244;2023-07-24T04:17:23;17.00;99.90
22813;DHT22;11573;51.334;3.244;2023-07-24T04:19:50;17.00;99.90
22813;DHT22;11573;51.334;3.244;2023-07-24T04:22:17;16.90;99.90
22813;DHT22;11573;51.334;3.244;2023-07-24T04:24:44;17.00;99.90
22813;DHT22;11573;51.334;3.244;2023-07-24T04:27:11;17.00;99.90
22813;DHT22;11573;51.334;3.244;2023-07-24T04:29:38;17.00;99.90
22813;DHT22;11573;51.334;3.244;2023-07-24T04:32:06;17.00;99.90
22813;DHT22;11573;51.334;3.244;2023-07-24T04:34:33;17.10;99.90
22813;DHT22;11573;51.334;3.244;2023-07-24T04:37:00;17.10;99.90
22813;DHT22;11573;51.334;3.244;2023-07-24T04:39:27;17.10;99.90
22813;DHT22;11573;51.334;3.244;2023-07-24T04:41:54;17.20;99.90
22813;DHT22;11573;51.334;3.244;2023-07-24T04:44:20;17.20;99.90
22813;DHT22;11573;51.334;3.244;2023-07-24T04:46:47;17.30;99.90
22813;DHT22;11573;51.334;3.244;2023-07-24T04:49:14;17.30;99.90
22813;DHT22;11573;51.334;3.244;2023-07-24T04:51:41;17.20;99.90
22813;DHT22;11573;51.334;3.244;2023-07-24T04:54:08;17.10;99.90
22813;DHT22;11573;51.334;3.244;2023-07-24T04:56:36;17.00;99.90
22813;DHT22;11573;51.334;3.244;2023-07-24T04:59:03;17.00;99.90
22813;DHT22;11573;51.334;3.244;2023-07-24T05:01:30;17.10;99.90
22813;DHT22;11573;51.334;3.244;2023-07-24T05:03:57;17.10;99.90
22813;DHT22;11573;51.334;3.244;2023-07-24T05:06:24;17.00;99.90
22813;DHT22;11573;51.334;3.244;2023-07-24T05:08:52;17.10;99.90
22813;DHT22;11573;51.334;3.244;2023-07-24T05:11:19;17.10;99.90
22813;DHT22;11573;51.334;3.244;2023-07-24T05:13:46;17.10;99.90
22813;DHT22;11573;51.334;3.244;2023-07-24T05:16:13;17.10;99.90
22813;DHT22;11573;51.334;3.244;2023-07-24T05:18:40;17.10;99.90
22813;DHT22;11573;51.334;3.244;2023-07-24T05:21:07;17.10;99.90
22813;DHT22;11573;51.334;3.244;2023-07-24T05:23:34;17.10;99.90
22813;DHT22;11573;51.334;3.244;2023-07-24T05:26:03;17.10;99.90
22813;DHT22;11573;51.334;3.244;2023-07-24T05:28:31;17.00;99.90
22813;DHT22;11573;51.334;3.244;2023-07-24T05:31:03;17.00;99.90
22813;DHT22;11573;51.334;3.244;2023-07-24T05:33:31;17.10;99.90
22813;DHT22;11573;51.334;3.244;2023-07-24T05:35:59;17.20;99.90
22813;DHT22;11573;51.334;3.244;2023-07-24T05:38:26;17.40;99.90
22813;DHT22;11573;51.334;3.244;2023-07-24T05:43:23;17.60;99.90
22813;DHT22;11573;51.334;3.244;2023-07-24T05:45:51;17.80;99.90
22813;DHT22;11573;51.334;3.244;2023-07-24T05:48:18;18.30;99.90
22813;DHT22;11573;51.334;3.244;2023-07-24T05:50:45;19.00;99.90
22813;DHT22;11573;51.334;3.244;2023-07-24T05:53:12;20.00;99.90
22813;DHT22;11573;51.334;3.244;2023-07-24T05:55:39;20.50;99.90
22813;DHT22;11573;51.334;3.244;2023-07-24T05:58:06;21.10;99.90
22813;DHT22;11573;51.334;3.244;2023-07-24T06:00:33;20.70;99.90
22813;DHT22;11573;51.334;3.244;2023-07-24T06:03:01;20.50;99.90
22813;DHT22;11573;51.334;3.244;2023-07-24T06:05:28;20.30;99.90
22813;DHT22;11573;51.334;3.244;2023-07-24T06:07:55;20.20;99.90
22813;DHT22;11573;51.334;3.244;2023-07-24T06:10:22;20.30;99.90
22813;DHT22;11573;51.334;3.244;2023-07-24T06:12:48;20.30;99.90
22813;DHT22;11573;51.334;3.244;2023-07-24T06:15:15;20.10;99.90
22813;DHT22;11573;51.334;3.244;2023-07-24T06:17:42;19.90;99.90
22813;DHT22;11573;51.334;3.244;2023-07-24T06:20:10;19.70;99.90
22813;DHT22;11573;51.334;3.244;2023-07-24T06:22:37;19.40;99.90
22813;DHT22;11573;51.334;3.244;2023-07-24T06:25:04;19.00;99.90
22813;DHT22;11573;51.334;3.244;2023-07-24T06:27:31;18.90;99.90
22813;DHT22;11573;51.334;3.244;2023-07-24T06:29:58;18.80;99.90
22813;DHT22;11573;51.334;3.244;2023-07-24T06:32:41;18.90;99.90
22813;DHT22;11573;51.334;3.244;2023-07-24T06:35:08;19.10;99.90
22813;DHT22;11573;51.334;3.244;2023-07-24T06:37:35;19.10;99.90
22813;DHT22;11573;51.334;3.244;2023-07-24T06:40:02;19.10;99.90
22813;DHT22;11573;51.334;3.244;2023-07-24T06:42:29;19.20;99.90
22813;DHT22;11573;51.334;3.244;2023-07-24T06:44:56;19.30;99.90
22813;DHT22;11573;51.334;3.244;2023-07-24T06:47:23;19.40;99.90
22813;DHT22;11573;51.334;3.244;2023-07-24T06:49:50;19.80;99.90
22813;DHT22;11573;51.334;3.244;2023-07-24T06:52:17;20.10;99.90
22813;DHT22;11573;51.334;3.244;2023-07-24T06:54:44;20.50;99.90
22813;DHT22;11573;51.334;3.244;2023-07-24T06:57:11;20.50;99.90
22813;DHT22;11573;51.334;3.244;2023-07-24T06:59:38;20.10;99.90
22813;DHT22;11573;51.334;3.244;2023-07-24T07:02:05;19.80;99.90
22813;DHT22;11573;51.334;3.244;2023-07-24T07:04:32;19.70;99.90
22813;DHT22;11573;51.334;3.244;2023-07-24T07:06:59;20.00;99.90
22813;DHT22;11573;51.334;3.244;2023-07-24T07:09:26;20.10;99.90
22813;DHT22;11573;51.334;3.244;2023-07-24T07:11:53;19.80;99.90
22813;DHT22;11573;51.334;3.244;2023-07-24T07:14:20;19.80;99.90
22813;DHT22;11573;51.334;3.244;2023-07-24T07:16:47;19.60;99.90
22813;DHT22;11573;51.334;3.244;2023-07-24T07:19:14;19.30;99.90
22813;DHT22;11573;51.334;3.244;2023-07-24T07:21:41;18.90;99.90
22813;DHT22;11573;51.334;3.244;2023-07-24T07:24:08;18.60;99.90
22813;DHT22;11573;51.334;3.244;2023-07-24T07:26:35;18.50;99.90
22813;DHT22;11573;51.334;3.244;2023-07-24T07:29:03;18.40;99.90
22813;DHT22;11573;51.334;3.244;2023-07-24T07:31:30;18.50;99.90
22813;DHT22;11573;51.334;3.244;2023-07-24T07:33:57;18.50;99.90
22813;DHT22;11573;51.334;3.244;2023-07-24T07:36:24;18.40;99.90
22813;DHT22;11573;51.334;3.244;2023-07-24T07:38:51;18.20;99.90
22813;DHT22;11573;51.334;3.244;2023-07-24T07:41:18;17.90;99.90
22813;DHT22;11573;51.334;3.244;2023-07-24T07:43:45;17.70;99.90
22813;DHT22;11573;51.334;3.244;2023-07-24T07:46:12;17.60;99.90
22813;DHT22;11573;51.334;3.244;2023-07-24T07:48:39;17.60;99.90
22813;DHT22;11573;51.334;3.244;2023-07-24T07:51:06;17.80;99.90
22813;DHT22;11573;51.334;3.244;2023-07-24T07:53:33;17.90;99.90
22813;DHT22;11573;51.334;3.244;2023-07-24T07:56:00;18.10;99.90
22813;DHT22;11573;51.334;3.244;2023-07-24T07:58:28;18.20;99.90
22813;DHT22;11573;51.334;3.244;2023-07-24T08:00:54;18.30;99.90
22813;DHT22;11573;51.334;3.244;2023-07-24T08:03:22;18.20;99.90
22813;DHT22;11573;51.334;3.244;2023-07-24T08:05:49;18.10;99.90
22813;DHT22;11573;51.334;3.244;2023-07-24T08:08:16;18.20;99.90
22813;DHT22;11573;51.334;3.244;2023-07-24T08:10:43;18.40;99.90
22813;DHT22;11573;51.334;3.244;2023-07-24T08:13:11;18.50;99.90
22813;DHT22;11573;51.334;3.244;2023-07-24T08:15:38;18.80;99.90
22813;DHT22;11573;51.334;3.244;2023-07-24T08:18:06;18.90;99.90
22813;DHT22;11573;51.334;3.244;2023-07-24T08:20:37;19.20;99.90
22813;DHT22;11573;51.334;3.244;2023-07-24T08:23:05;19.20;99.90
22813;DHT22;11573;51.334;3.244;2023-07-24T08:25:32;19.20;99.90
22813;DHT22;11573;51.334;3.244;2023-07-24T08:27:59;19.20;99.90
22813;DHT22;11573;51.334;3.244;2023-07-24T08:30:35;19.20;99.90
22813;DHT22;11573;51.334;3.244;2023-07-24T08:33:03;19.20;99.90
22813;DHT22;11573;51.334;3.244;2023-07-24T08:35:30;19.30;99.90
22813;DHT22;11573;51.334;3.244;2023-07-24T08:37:56;19.40;99.90
22813;DHT22;11573;51.334;3.244;2023-07-24T08:40:24;19.60;99.90
22813;DHT22;11573;51.334;3.244;2023-07-24T08:42:51;19.70;99.90
22813;DHT22;11573;51.334;3.244;2023-07-24T08:45:20;19.60;99.90
22813;DHT22;11573;51.334;3.244;2023-07-24T08:47:48;19.60;99.90
22813;DHT22;11573;51.334;3.244;2023-07-24T08:50:16;19.70;99.90
22813;DHT22;11573;51.334;3.244;2023-07-24T08:52:44;19.40;99.90
22813;DHT22;11573;51.334;3.244;2023-07-24T08:55:13;19.60;99.90
22813;DHT22;11573;51.334;3.244;2023-07-24T08:57:40;20.10;99.90
22813;DHT22;11573;51.334;3.244;2023-07-24T09:00:07;20.30;99.90
22813;DHT22;11573;51.334;3.244;2023-07-24T09:02:35;20.50;99.90
22813;DHT22;11573;51.334;3.244;2023-07-24T09:05:03;21.00;99.90
22813;DHT22;11573;51.334;3.244;2023-07-24T09:07:31;21.50;99.90
22813;DHT22;11573;51.334;3.244;2023-07-24T09:09:59;22.20;99.90
22813;DHT22;11573;51.334;3.244;2023-07-24T09:12:26;23.00;99.90
22813;DHT22;11573;51.334;3.244;2023-07-24T09:15:03;23.20;99.90
22813;DHT22;11573;51.334;3.244;2023-07-24T09:17:33;23.30;99.90
22813;DHT22;11573;51.334;3.244;2023-07-24T09:20:02;23.00;99.90
22813;DHT22;11573;51.334;3.244;2023-07-24T09:22:31;22.50;99.90
22813;DHT22;11573;51.334;3.244;2023-07-24T09:25:00;21.80;99.90
22813;DHT22;11573;51.334;3.244;2023-07-24T09:27:30;21.20;99.90
22813;DHT22;11573;51.334;3.244;2023-07-24T09:29:59;21.00;99.90
22813;DHT22;11573;51.334;3.244;2023-07-24T09:32:27;20.50;99.90
22813;DHT22;11573;51.334;3.244;2023-07-24T09:34:55;20.50;99.90
22813;DHT22;11573;51.334;3.244;2023-07-24T09:37:27;20.70;99.90
22813;DHT22;11573;51.334;3.244;2023-07-24T09:39:54;20.90;99.90
22813;DHT22;11573;51.334;3.244;2023-07-24T09:42:48;21.30;99.90
22813;DHT22;11573;51.334;3.244;2023-07-24T09:45:35;21.50;99.90
22813;DHT22;11573;51.334;3.244;2023-07-24T09:48:12;21.70;99.90
22813;DHT22;11573;51.334;3.244;2023-07-24T09:51:01;21.80;99.90
22813;DHT22;11573;51.334;3.244;2023-07-24T09:53:32;22.30;99.90
22813;DHT22;11573;51.334;3.244;2023-07-24T09:56:05;22.10;99.90
22813;DHT22;11573;51.334;3.244;2023-07-24T09:58:35;22.30;99.90
22813;DHT22;11573;51.334;3.244;2023-07-24T10:01:04;22.20;99.90
22813;DHT22;11573;51.334;3.244;2023-07-24T10:03:39;22.40;99.90
22813;DHT22;11573;51.334;3.244;2023-07-24T10:06:09;22.60;99.90
22813;DHT22;11573;51.334;3.244;2023-07-24T10:08:39;22.30;99.90
22813;DHT22;11573;51.334;3.244;2023-07-24T10:11:10;22.20;99.90
22813;DHT22;11573;51.334;3.244;2023-07-24T10:13:38;21.80;99.90
22813;DHT22;11573;51.334;3.244;2023-07-24T10:16:07;22.30;99.90
22813;DHT22;11573;51.334;3.244;2023-07-24T10:18:35;23.00;99.90
22813;DHT22;11573;51.334;3.244;2023-07-24T10:21:09;23.60;99.90
22813;DHT22;11573;51.334;3.244;2023-07-24T10:23:40;23.30;99.90
22813;DHT22;11573;51.334;3.244;2023-07-24T10:26:08;23.00;99.90
22813;DHT22;11573;51.334;3.244;2023-07-24T10:28:37;22.60;99.90
22813;DHT22;11573;51.334;3.244;2023-07-24T10:31:23;22.70;99.90
22813;DHT22;11573;51.334;3.244;2023-07-24T10:33:51;22.80;99.90
22813;DHT22;11573;51.334;3.244;2023-07-24T10:36:19;23.10;99.90
22813;DHT22;11573;51.334;3.244;2023-07-24T10:38:51;22.90;99.90
22813;DHT22;11573;51.334;3.244;2023-07-24T10:41:19;22.90;99.90
22813;DHT22;11573;51.334;3.244;2023-07-24T10:43:52;22.20;99.90
22813;DHT22;11573;51.334;3.244;2023-07-24T10:46:36;21.90;99.90
22813;DHT22;11573;51.334;3.244;2023-07-24T10:49:03;21.50;99.90
22813;DHT22;11573;51.334;3.244;2023-07-24T10:51:30;21.40;99.90
22813;DHT22;11573;51.334;3.244;2023-07-24T10:54:03;21.40;99.90
22813;DHT22;11573;51.334;3.244;2023-07-24T10:56:30;21.50;99.90
22813;DHT22;11573;51.334;3.244;2023-07-24T10:59:02;22.10;99.90
22813;DHT22;11573;51.334;3.244;2023-07-24T11:01:31;22.80;99.90
22813;DHT22;11573;51.334;3.244;2023-07-24T11:03:59;23.00;99.90
22813;DHT22;11573;51.334;3.244;2023-07-24T11:06:27;23.00;99.90
22813;DHT22;11573;51.334;3.244;2023-07-24T11:08:56;23.20;99.90
22813;DHT22;11573;51.334;3.244;2023-07-24T11:11:31;23.10;99.90
22813;DHT22;11573;51.334;3.244;2023-07-24T11:14:00;23.20;99.90
22813;DHT22;11573;51.334;3.244;2023-07-24T11:16:28;23.10;99.90
22813;DHT22;11573;51.334;3.244;2023-07-24T11:18:58;22.70;99.90
22813;DHT22;11573;51.334;3.244;2023-07-24T11:21:25;22.70;99.90
22813;DHT22;11573;51.334;3.244;2023-07-24T11:23:54;22.80;99.90
22813;DHT22;11573;51.334;3.244;2023-07-24T11:26:26;22.80;99.90
22813;DHT22;11573;51.334;3.244;2023-07-24T11:28:53;22.70;99.90
22813;DHT22;11573;51.334;3.244;2023-07-24T11:31:20;22.60;99.90
22813;DHT22;11573;51.334;3.244;2023-07-24T11:33:49;22.50;99.90
22813;DHT22;11573;51.334;3.244;2023-07-24T11:36:17;22.60;99.90
22813;DHT22;11573;51.334;3.244;2023-07-24T11:38:45;22.50;99.90
22813;DHT22;11573;51.334;3.244;2023-07-24T11:41:13;22.50;99.90
22813;DHT22;11573;51.334;3.244;2023-07-24T11:43:50;23.00;99.90
22813;DHT22;11573;51.334;3.244;2023-07-24T11:46:28;23.00;99.90
22813;DHT22;11573;51.334;3.244;2023-07-24T11:48:56;22.70;99.90
22813;DHT22;11573;51.334;3.244;2023-07-24T11:51:27;22.20;99.90
22813;DHT22;11573;51.334;3.244;2023-07-24T11:54:09;22.30;99.90
22813;DHT22;11573;51.334;3.244;2023-07-24T11:56:39;22.30;99.90
22813;DHT22;11573;51.334;3.244;2023-07-24T11:59:13;22.30;99.90
22813;DHT22;11573;51.334;3.244;2023-07-24T12:01:41;22.00;99.90
22813;DHT22;11573;51.334;3.244;2023-07-24T12:04:13;21.60;99.90
22813;DHT22;11573;51.334;3.244;2023-07-24T12:06:40;21.90;99.90
22813;DHT22;11573;51.334;3.244;2023-07-24T12:09:07;22.30;99.90
22813;DHT22;11573;51.334;3.244;2023-07-24T12:11:43;22.70;99.90
22813;DHT22;11573;51.334;3.244;2023-07-24T12:14:15;23.40;99.90
22813;DHT22;11573;51.334;3.244;2023-07-24T12:16:42;23.30;99.90
22813;DHT22;11573;51.334;3.244;2023-07-24T12:19:10;23.40;99.90
22813;DHT22;11573;51.334;3.244;2023-07-24T12:21:38;23.60;99.90
22813;DHT22;11573;51.334;3.244;2023-07-24T12:24:05;23.60;99.90
22813;DHT22;11573;51.334;3.244;2023-07-24T12:26:32;23.00;99.90
22813;DHT22;11573;51.334;3.244;2023-07-24T12:28:59;22.90;99.90
22813;DHT22;11573;51.334;3.244;2023-07-24T12:31:27;22.70;99.90
22813;DHT22;11573;51.334;3.244;2023-07-24T12:33:55;22.60;99.90
22813;DHT22;11573;51.334;3.244;2023-07-24T12:36:23;22.30;99.90
22813;DHT22;11573;51.334;3.244;2023-07-24T12:38:50;22.30;99.90
22813;DHT22;11573;51.334;3.244;2023-07-24T12:41:17;22.30;99.90
22813;DHT22;11573;51.334;3.244;2023-07-24T12:43:44;22.40;99.90
22813;DHT22;11573;51.334;3.244;2023-07-24T12:46:11;22.60;99.90
22813;DHT22;11573;51.334;3.244;2023-07-24T12:48:38;22.80;99.90
22813;DHT22;11573;51.334;3.244;2023-07-24T12:51:05;23.10;99.90
22813;DHT22;11573;51.334;3.244;2023-07-24T12:53:32;23.10;99.90
22813;DHT22;11573;51.334;3.244;2023-07-24T12:56:19;23.10;99.90
22813;DHT22;11573;51.334;3.244;2023-07-24T12:58:46;22.90;99.90
22813;DHT22;11573;51.334;3.244;2023-07-24T13:01:13;22.90;99.90
22813;DHT22;11573;51.334;3.244;2023-07-24T13:03:40;23.10;99.90
22813;DHT22;11573;51.334;3.244;2023-07-24T13:06:07;23.10;99.90
22813;DHT22;11573;51.334;3.244;2023-07-24T13:08:34;22.60;99.90
22813;DHT22;11573;51.334;3.244;2023-07-24T13:11:01;22.80;99.90
22813;DHT22;11573;51.334;3.244;2023-07-24T13:13:28;22.60;99.90
22813;DHT22;11573;51.334;3.244;2023-07-24T13:15:57;22.60;99.90
22813;DHT22;11573;51.334;3.244;2023-07-24T13:18:24;22.90;99.90
22813;DHT22;11573;51.334;3.244;2023-07-24T13:20:56;23.00;99.90
22813;DHT22;11573;51.334;3.244;2023-07-24T13:23:23;23.00;99.90
22813;DHT22;11573;51.334;3.244;2023-07-24T13:25:52;23.10;99.90
22813;DHT22;11573;51.334;3.244;2023-07-24T13:28:19;22.70;99.90
22813;DHT22;11573;51.334;3.244;2023-07-24T13:30:46;23.10;99.90
22813;DHT22;11573;51.334;3.244;2023-07-24T13:33:13;23.40;99.90
22813;DHT22;11573;51.334;3.244;2023-07-24T13:35:41;22.90;99.90
22813;DHT22;11573;51.334;3.244;2023-07-24T13:38:08;22.30;99.90
22813;DHT22;11573;51.334;3.244;2023-07-24T13:40:36;21.80;99.90
22813;DHT22;11573;51.334;3.244;2023-07-24T13:43:03;21.20;99.90
22813;DHT22;11573;51.334;3.244;2023-07-24T13:45:30;21.00;99.90
22813;DHT22;11573;51.334;3.244;2023-07-24T13:47:57;20.90;99.90
22813;DHT22;11573;51.334;3.244;2023-07-24T13:50:29;20.60;99.90
22813;DHT22;11573;51.334;3.244;2023-07-24T13:52:56;20.60;99.90
22813;DHT22;11573;51.334;3.244;2023-07-24T13:55:23;20.90;99.90
22813;DHT22;11573;51.334;3.244;2023-07-24T13:57:50;21.20;99.90
22813;DHT22;11573;51.334;3.244;2023-07-24T14:00:17;21.70;99.90
22813;DHT22;11573;51.334;3.244;2023-07-24T14:02:44;21.30;99.90
22813;DHT22;11573;51.334;3.244;2023-07-24T14:05:11;20.80;99.90
22813;DHT22;11573;51.334;3.244;2023-07-24T14:07:38;20.50;99.90
22813;DHT22;11573;51.334;3.244;2023-07-24T14:10:05;20.40;99.90
22813;DHT22;11573;51.334;3.244;2023-07-24T14:12:32;20.40;99.90
22813;DHT22;11573;51.334;3.244;2023-07-24T14:14:59;20.40;99.90
22813;DHT22;11573;51.334;3.244;2023-07-24T14:17:27;20.10;99.90
22813;DHT22;11573;51.334;3.244;2023-07-24T14:19:54;20.50;99.90
22813;DHT22;11573;51.334;3.244;2023-07-24T14:22:21;20.80;99.90
22813;DHT22;11573;51.334;3.244;2023-07-24T14:24:48;20.80;99.90
22813;DHT22;11573;51.334;3.244;2023-07-24T14:27:15;20.60;99.90
22813;DHT22;11573;51.334;3.244;2023-07-24T14:29:42;20.00;99.90
22813;DHT22;11573;51.334;3.244;2023-07-24T14:32:09;20.10;99.90
22813;DHT22;11573;51.334;3.244;2023-07-24T14:34:36;20.20;99.90
22813;DHT22;11573;51.334;3.244;2023-07-24T14:37:03;20.50;99.90
22813;DHT22;11573;51.334;3.244;2023-07-24T14:39:30;20.30;99.90
22813;DHT22;11573;51.334;3.244;2023-07-24T14:41:57;20.10;99.90
22813;DHT22;11573;51.334;3.244;2023-07-24T14:44:25;19.80;99.90
22813;DHT22;11573;51.334;3.244;2023-07-24T14:46:52;19.80;99.90
22813;DHT22;11573;51.334;3.244;2023-07-24T14:49:19;20.30;99.90
22813;DHT22;11573;51.334;3.244;2023-07-24T14:51:46;20.20;99.90
22813;DHT22;11573;51.334;3.244;2023-07-24T14:54:13;20.40;99.90
22813;DHT22;11573;51.334;3.244;2023-07-24T14:56:40;20.10;99.90
22813;DHT22;11573;51.334;3.244;2023-07-24T14:59:22;19.60;99.90
22813;DHT22;11573;51.334;3.244;2023-07-24T15:01:49;19.20;99.90
22813;DHT22;11573;51.334;3.244;2023-07-24T15:04:16;19.10;99.90
22813;DHT22;11573;51.334;3.244;2023-07-24T15:06:43;19.20;99.90
22813;DHT22;11573;51.334;3.244;2023-07-24T15:09:10;19.20;99.90
22813;DHT22;11573;51.334;3.244;2023-07-24T15:11:38;19.00;99.90
22813;DHT22;11573;51.334;3.244;2023-07-24T15:14:05;19.10;99.90
22813;DHT22;11573;51.334;3.244;2023-07-24T15:16:32;19.20;99.90
22813;DHT22;11573;51.334;3.244;2023-07-24T15:18:59;19.30;99.90
22813;DHT22;11573;51.334;3.244;2023-07-24T15:21:26;19.60;99.90
22813;DHT22;11573;51.334;3.244;2023-07-24T15:23:53;19.70;99.90
22813;DHT22;11573;51.334;3.244;2023-07-24T15:26:20;19.60;99.90
22813;DHT22;11573;51.334;3.244;2023-07-24T15:28:47;19.60;99.90
22813;DHT22;11573;51.334;3.244;2023-07-24T15:31:14;19.50;99.90
22813;DHT22;11573;51.334;3.244;2023-07-24T15:33:42;19.60;99.90
22813;DHT22;11573;51.334;3.244;2023-07-24T15:36:09;19.60;99.90
22813;DHT22;11573;51.334;3.244;2023-07-24T15:38:36;19.80;99.90
22813;DHT22;11573;51.334;3.244;2023-07-24T15:41:03;19.90;99.90
22813;DHT22;11573;51.334;3.244;2023-07-24T15:43:30;20.00;99.90